sensor_id;sensor_type;location;lat;lon;timestamp;pressure;altitude;pressure_sealevel;temperature;humidity
51178;BME280;37243;49.814;8.652;2022-08-11T00:00:34;100758.41;;;28.55;37.41
51178;BME280;37243;49.814;8.652;2022-08-11T00:03:08;100758.41;;;28.55;37.32
51178;BME280;37243;49.814;8.652;2022-08-11T00:05:43;100766.69;;;28.55;36.76
51178;BME280;37243;49.814;8.652;2022-08-11T00:08:21;100766.34;;;28.57;37.09
51178;BME280;37243;49.814;8.652;2022-08-11T00:10:56;100766.34;;;28.57;37.23
51178;BME280;37243;49.814;8.652;2022-08-11T00:13:31;100762.78;;;28.56;37.55
51178;BME280;37243;49.814;8.652;2022-08-11T00:16:01;100760.03;;;28.56;37.25
51178;BME280;37243;49.814;8.652;2022-08-11T00:18:38;100759.22;;;28.56;37.57
51178;BME280;37243;49.814;8.652;2022-08-11T00:21:07;100760.03;;;28.56;36.70
51178;BME280;37243;49.814;8.652;2022-08-11T00:23:41;100762.28;;;28.54;36.83
51178;BME280;37243;49.814;8.652;2022-08-11T00:26:12;100758.25;;;28.52;37.15
51178;BME280;37243;49.814;8.652;2022-08-11T00:28:41;100757.13;;;28.53;37.66
51178;BME280;37243;49.814;8.652;2022-08-11T00:31:23;100751.94;;;28.51;37.24
51178;BME280;37243;49.814;8.652;2022-08-11T00:33:58;100762.63;;;28.53;37.61
51178;BME280;37243;49.814;8.652;2022-08-11T00:36:29;100764.59;;;28.52;37.42
51178;BME280;37243;49.814;8.652;2022-08-11T00:39:07;100760.22;;;28.51;36.69
51178;BME280;37243;49.814;8.652;2022-08-11T00:41:41;100761.81;;;28.52;37.17
51178;BME280;37243;49.814;8.652;2022-08-11T00:44:35;100759.72;;;28.49;37.31
51178;BME280;37243;49.814;8.652;2022-08-11T00:47:15;100755.38;;;28.48;37.55
51178;BME280;37243;49.814;8.652;2022-08-11T00:49:54;100764.94;;;28.51;37.30
51178;BME280;37243;49.814;8.652;2022-08-11T00:52:53;100764.78;;;28.47;37.44
51178;BME280;37243;49.814;8.652;2022-08-11T00:56:04;100759.72;;;28.49;37.51
51178;BME280;37243;49.814;8.652;2022-08-11T00:59:15;100753.38;;;28.49;37.13
51178;BME280;37243;49.814;8.652;2022-08-11T01:02:09;100752.59;;;28.48;37.25
51178;BME280;37243;49.814;8.652;2022-08-11T01:10:50;100753.75;;;28.47;36.77
51178;BME280;37243;49.814;8.652;2022-08-11T01:14:03;100752.09;;;28.46;36.76
51178;BME280;37243;49.814;8.652;2022-08-11T01:17:02;100762.00;;;28.47;37.21
51178;BME280;37243;49.814;8.652;2022-08-11T01:20:00;100756.03;;;28.45;36.90
51178;BME280;37243;49.814;8.652;2022-08-11T01:23:02;100761.88;;;28.44;37.56
51178;BME280;37243;49.814;8.652;2022-08-11T01:25:53;100765.44;;;28.44;37.00
51178;BME280;37243;49.814;8.652;2022-08-11T01:28:56;100766.56;;;28.43;36.71
51178;BME280;37243;49.814;8.652;2022-08-11T01:31:49;100767.72;;;28.42;37.58
51178;BME280;37243;49.814;8.652;2022-08-11T01:40:54;100762.88;;;28.39;37.20
51178;BME280;37243;49.814;8.652;2022-08-11T01:44:03;100769.53;;;28.38;37.12
51178;BME280;37243;49.814;8.652;2022-08-11T01:47:01;100769.53;;;28.38;36.68
51178;BME280;37243;49.814;8.652;2022-08-11T01:49:39;100775.03;;;28.38;36.68
51178;BME280;37243;49.814;8.652;2022-08-11T01:52:16;100770.00;;;28.40;37.39
51178;BME280;37243;49.814;8.652;2022-08-11T01:54:53;100771.16;;;28.39;37.11
51178;BME280;37243;49.814;8.652;2022-08-11T01:57:35;100776.66;;;28.39;36.79
51178;BME280;37243;49.814;8.652;2022-08-11T02:00:08;100775.03;;;28.38;37.38
51178;BME280;37243;49.814;8.652;2022-08-11T02:02:44;100771.63;;;28.41;37.56
51178;BME280;37243;49.814;8.652;2022-08-11T02:05:41;100760.78;;;28.36;36.87
51178;BME280;37243;49.814;8.652;2022-08-11T02:08:22;100766.97;;;28.33;37.71
51178;BME280;37243;49.814;8.652;2022-08-11T02:11:04;100766.97;;;28.33;36.79
51178;BME280;37243;49.814;8.652;2022-08-11T02:13:56;100762.91;;;28.31;37.61
51178;BME280;37243;49.814;8.652;2022-08-11T02:16:33;100766.81;;;28.30;37.46
51178;BME280;37243;49.814;8.652;2022-08-11T02:19:11;100777.03;;;28.29;37.37
51178;BME280;37243;49.814;8.652;2022-08-11T02:22:00;100769.91;;;28.28;37.48
51178;BME280;37243;49.814;8.652;2022-08-11T02:24:46;100769.91;;;28.28;37.49
51178;BME280;37243;49.814;8.652;2022-08-11T02:27:20;100767.94;;;28.29;37.38
51178;BME280;37243;49.814;8.652;2022-08-11T02:29:57;100767.16;;;28.28;37.58
51178;BME280;37243;49.814;8.652;2022-08-11T02:32:33;100769.09;;;28.28;37.74
51178;BME280;37243;49.814;8.652;2022-08-11T02:35:22;100770.69;;;28.29;37.12
51178;BME280;37243;49.814;8.652;2022-08-11T02:40:48;100777.03;;;28.29;37.29
51178;BME280;37243;49.814;8.652;2022-08-11T02:43:30;100763.56;;;28.28;37.01
51178;BME280;37243;49.814;8.652;2022-08-11T02:46:19;100766.81;;;28.30;36.86
51178;BME280;37243;49.814;8.652;2022-08-11T02:49:06;100762.09;;;28.30;37.08
51178;BME280;37243;49.814;8.652;2022-08-11T02:52:04;100757.41;;;28.31;37.01
51178;BME280;37243;49.814;8.652;2022-08-11T02:54:38;100759.34;;;28.30;37.62
51178;BME280;37243;49.814;8.652;2022-08-11T02:57:18;100757.41;;;28.31;36.83
51178;BME280;37243;49.814;8.652;2022-08-11T02:59:51;100756.59;;;28.30;37.66
51178;BME280;37243;49.814;8.652;2022-08-11T03:02:42;100757.06;;;28.32;37.06
51178;BME280;37243;49.814;8.652;2022-08-11T03:05:32;100749.91;;;28.31;37.41
51178;BME280;37243;49.814;8.652;2022-08-11T03:08:12;100747.97;;;28.32;37.11
51178;BME280;37243;49.814;8.652;2022-08-11T03:10:50;100755.91;;;28.33;37.11
51178;BME280;37243;49.814;8.652;2022-08-11T03:13:37;100752.00;;;28.34;37.09
51178;BME280;37243;49.814;8.652;2022-08-11T03:16:25;100762.25;;;28.34;37.02
51178;BME280;37243;49.814;8.652;2022-08-11T03:19:14;100753.63;;;28.35;37.17
51178;BME280;37243;49.814;8.652;2022-08-11T03:21:55;100752.50;;;28.36;37.43
51178;BME280;37243;49.814;8.652;2022-08-11T03:24:32;100752.81;;;28.35;37.51
51178;BME280;37243;49.814;8.652;2022-08-11T03:27:08;100753.63;;;28.35;37.08
51178;BME280;37243;49.814;8.652;2022-08-11T03:29:46;100745.69;;;28.34;36.66
51178;BME280;37243;49.814;8.652;2022-08-11T03:32:21;100753.63;;;28.35;37.26
51178;BME280;37243;49.814;8.652;2022-08-11T03:34:55;100753.78;;;28.39;36.98
51178;BME280;37243;49.814;8.652;2022-08-11T03:37:32;100755.41;;;28.40;37.21
51178;BME280;37243;49.814;8.652;2022-08-11T03:40:32;100743.56;;;28.39;36.93
51178;BME280;37243;49.814;8.652;2022-08-11T03:43:27;100749.75;;;28.36;36.97
51178;BME280;37243;49.814;8.652;2022-08-11T03:46:03;100745.03;;;28.37;37.37
51178;BME280;37243;49.814;8.652;2022-08-11T03:48:41;100756.84;;;28.37;37.52
51178;BME280;37243;49.814;8.652;2022-08-11T03:51:24;100762.38;;;28.37;37.72
51178;BME280;37243;49.814;8.652;2022-08-11T03:54:12;100758.34;;;28.35;37.77
51178;BME280;37243;49.814;8.652;2022-08-11T04:00:04;100766.97;;;28.33;38.00
51178;BME280;37243;49.814;8.652;2022-08-11T04:03:01;100765.78;;;28.34;37.15
51178;BME280;37243;49.814;8.652;2022-08-11T04:06:01;100769.06;;;28.36;37.48
51178;BME280;37243;49.814;8.652;2022-08-11T04:15:10;100769.72;;;28.33;37.12
51178;BME280;37243;49.814;8.652;2022-08-11T04:18:22;100767.28;;;28.32;37.50
51178;BME280;37243;49.814;8.652;2022-08-11T04:21:04;100772.47;;;28.33;37.54
51178;BME280;37243;49.814;8.652;2022-08-11T04:23:55;100775.25;;;28.33;37.45
51178;BME280;37243;49.814;8.652;2022-08-11T04:29:41;100766.97;;;28.33;37.29
51178;BME280;37243;49.814;8.652;2022-08-11T04:32:30;100766.13;;;28.33;37.55
51178;BME280;37243;49.814;8.652;2022-08-11T04:35:24;100761.75;;;28.32;37.70
51178;BME280;37243;49.814;8.652;2022-08-11T04:38:13;100766.13;;;28.33;37.15
51178;BME280;37243;49.814;8.652;2022-08-11T04:41:05;100774.06;;;28.34;37.16
51178;BME280;37243;49.814;8.652;2022-08-11T04:44:10;100766.97;;;28.33;37.34
51178;BME280;37243;49.814;8.652;2022-08-11T04:47:08;100764.19;;;28.33;37.89
51178;BME280;37243;49.814;8.652;2022-08-11T04:50:17;100772.47;;;28.33;37.18
51178;BME280;37243;49.814;8.652;2022-08-11T04:53:14;100774.88;;;28.35;37.98
51178;BME280;37243;49.814;8.652;2022-08-11T04:56:08;100769.72;;;28.33;37.41
51178;BME280;37243;49.814;8.652;2022-08-11T04:59:12;100769.38;;;28.35;37.25
51178;BME280;37243;49.814;8.652;2022-08-11T05:05:00;100769.38;;;28.35;37.42
51178;BME280;37243;49.814;8.652;2022-08-11T05:08:04;100774.88;;;28.35;37.20
51178;BME280;37243;49.814;8.652;2022-08-11T05:10:47;100778.00;;;28.33;37.86
51178;BME280;37243;49.814;8.652;2022-08-11T05:13:27;100779.59;;;28.34;37.53
51178;BME280;37243;49.814;8.652;2022-08-11T05:16:10;100780.41;;;28.35;37.39
51178;BME280;37243;49.814;8.652;2022-08-11T05:18:52;100780.41;;;28.35;37.70
51178;BME280;37243;49.814;8.652;2022-08-11T05:21:34;100790.16;;;28.32;37.53
51178;BME280;37243;49.814;8.652;2022-08-11T05:24:19;100785.47;;;28.33;37.16
51178;BME280;37243;49.814;8.652;2022-08-11T05:27:02;100789.50;;;28.35;37.58
51178;BME280;37243;49.814;8.652;2022-08-11T05:29:54;100789.19;;;28.37;37.26
51178;BME280;37243;49.814;8.652;2022-08-11T05:32:41;100784.44;;;28.37;37.57
51178;BME280;37243;49.814;8.652;2022-08-11T05:35:27;100797.78;;;28.35;37.46
51178;BME280;37243;49.814;8.652;2022-08-11T05:37:58;100792.25;;;28.35;37.87
51178;BME280;37243;49.814;8.652;2022-08-11T05:40:47;100794.72;;;28.37;37.52
51178;BME280;37243;49.814;8.652;2022-08-11T05:43:28;100797.13;;;28.38;37.50
51178;BME280;37243;49.814;8.652;2022-08-11T05:46:12;100804.59;;;28.38;37.59
51178;BME280;37243;49.814;8.652;2022-08-11T05:48:53;100797.47;;;28.37;37.63
51178;BME280;37243;49.814;8.652;2022-08-11T05:51:36;100802.31;;;28.40;37.18
51178;BME280;37243;49.814;8.652;2022-08-11T05:54:18;100809.78;;;28.39;37.84
51178;BME280;37243;49.814;8.652;2022-08-11T05:57:00;100809.78;;;28.39;37.63
51178;BME280;37243;49.814;8.652;2022-08-11T05:59:30;100812.34;;;28.44;37.38
51178;BME280;37243;49.814;8.652;2022-08-11T06:02:04;100817.06;;;28.44;37.44
51178;BME280;37243;49.814;8.652;2022-08-11T06:04:34;100813.16;;;28.45;37.78
51178;BME280;37243;49.814;8.652;2022-08-11T06:07:06;100818.34;;;28.46;37.75
51178;BME280;37243;49.814;8.652;2022-08-11T06:09:37;100812.34;;;28.44;37.14
51178;BME280;37243;49.814;8.652;2022-08-11T06:12:15;100804.56;;;28.46;37.51
51178;BME280;37243;49.814;8.652;2022-08-11T06:14:44;100813.31;;;28.48;37.70
51178;BME280;37243;49.814;8.652;2022-08-11T06:17:21;100811.69;;;28.47;37.40
51178;BME280;37243;49.814;8.652;2022-08-11T06:19:50;100807.81;;;28.48;36.98
51178;BME280;37243;49.814;8.652;2022-08-11T06:22:22;100805.50;;;28.50;37.32
51178;BME280;37243;49.814;8.652;2022-08-11T06:24:54;100812.66;;;28.51;37.44
51178;BME280;37243;49.814;8.652;2022-08-11T06:27:24;100815.09;;;28.53;37.27
51178;BME280;37243;49.814;8.652;2022-08-11T06:29:53;100804.19;;;28.56;37.40
51178;BME280;37243;49.814;8.652;2022-08-11T06:32:27;100807.41;;;28.58;37.27
51178;BME280;37243;49.814;8.652;2022-08-11T06:35:04;100816.16;;;28.60;37.40
51178;BME280;37243;49.814;8.652;2022-08-11T06:37:45;100815.38;;;28.60;37.31
51178;BME280;37243;49.814;8.652;2022-08-11T06:40:32;100805.13;;;28.60;36.88
51178;BME280;37243;49.814;8.652;2022-08-11T06:43:09;100807.25;;;28.63;37.22
51178;BME280;37243;49.814;8.652;2022-08-11T06:45:45;100810.00;;;28.63;37.38
51178;BME280;37243;49.814;8.652;2022-08-11T06:48:20;100808.38;;;28.62;36.77
51178;BME280;37243;49.814;8.652;2022-08-11T06:50:50;100810.00;;;28.63;37.26
51178;BME280;37243;49.814;8.652;2022-08-11T06:53:32;100800.09;;;28.62;37.08
51178;BME280;37243;49.814;8.652;2022-08-11T06:56:01;100806.13;;;28.64;36.78
51178;BME280;37243;49.814;8.652;2022-08-11T06:58:43;100799.78;;;28.64;37.26
51178;BME280;37243;49.814;8.652;2022-08-11T07:01:37;100802.22;;;28.65;36.76
51178;BME280;37243;49.814;8.652;2022-08-11T07:04:20;100800.59;;;28.64;37.13
51178;BME280;37243;49.814;8.652;2022-08-11T07:13:06;100803.38;;;28.64;37.12
51178;BME280;37243;49.814;8.652;2022-08-11T07:15:47;100800.59;;;28.64;36.83
51178;BME280;37243;49.814;8.652;2022-08-11T07:18:23;100804.19;;;28.65;37.05
51178;BME280;37243;49.814;8.652;2022-08-11T07:21:14;100795.09;;;28.64;37.34
51178;BME280;37243;49.814;8.652;2022-08-11T07:23:57;100805.00;;;28.65;37.68
51178;BME280;37243;49.814;8.652;2022-08-11T07:26:42;100802.22;;;28.65;37.28
51178;BME280;37243;49.814;8.652;2022-08-11T07:29:24;100801.06;;;28.66;36.80
51178;BME280;37243;49.814;8.652;2022-08-11T07:31:54;100799.94;;;28.67;37.65
51178;BME280;37243;49.814;8.652;2022-08-11T07:34:31;100804.66;;;28.67;37.32
51178;BME280;37243;49.814;8.652;2022-08-11T07:37:08;100806.59;;;28.66;37.19
51178;BME280;37243;49.814;8.652;2022-08-11T07:39:38;100801.41;;;28.65;37.22
51178;BME280;37243;49.814;8.652;2022-08-11T07:42:10;100802.69;;;28.67;37.68
51178;BME280;37243;49.814;8.652;2022-08-11T07:44:40;100793.28;;;28.68;37.14
51178;BME280;37243;49.814;8.652;2022-08-11T07:47:22;100798.81;;;28.68;36.82
51178;BME280;37243;49.814;8.652;2022-08-11T07:50:04;100797.66;;;28.69;36.98
51178;BME280;37243;49.814;8.652;2022-08-11T07:52:48;100803.97;;;28.70;37.35
51178;BME280;37243;49.814;8.652;2022-08-11T07:55:17;100801.56;;;28.68;37.19
51178;BME280;37243;49.814;8.652;2022-08-11T07:57:49;100795.38;;;28.72;37.36
51178;BME280;37243;49.814;8.652;2022-08-11T08:00:34;100801.84;;;28.76;37.59
51178;BME280;37243;49.814;8.652;2022-08-11T08:03:16;100799.44;;;28.74;37.28
51178;BME280;37243;49.814;8.652;2022-08-11T08:05:57;100790.78;;;28.76;36.83
51178;BME280;37243;49.814;8.652;2022-08-11T08:08:41;100794.03;;;28.78;37.30
51178;BME280;37243;49.814;8.652;2022-08-11T08:11:23;100795.19;;;28.77;37.09
51178;BME280;37243;49.814;8.652;2022-08-11T08:14:05;100794.03;;;28.78;36.88
51178;BME280;37243;49.814;8.652;2022-08-11T08:16:47;100801.19;;;28.79;37.17
51178;BME280;37243;49.814;8.652;2022-08-11T08:19:28;100800.34;;;28.78;36.76
51178;BME280;37243;49.814;8.652;2022-08-11T08:21:58;100797.28;;;28.80;37.55
51178;BME280;37243;49.814;8.652;2022-08-11T08:24:30;100804.41;;;28.81;37.08
51178;BME280;37243;49.814;8.652;2022-08-11T08:26:59;100802.13;;;28.83;37.53
51178;BME280;37243;49.814;8.652;2022-08-11T08:29:31;100790.59;;;28.81;37.00
51178;BME280;37243;49.814;8.652;2022-08-11T08:32:14;100797.75;;;28.82;36.88
51178;BME280;37243;49.814;8.652;2022-08-11T08:34:43;100800.97;;;28.84;36.98
51178;BME280;37243;49.814;8.652;2022-08-11T08:37:13;100793.97;;;28.86;36.62
51178;BME280;37243;49.814;8.652;2022-08-11T08:39:44;100795.94;;;28.86;36.72
51178;BME280;37243;49.814;8.652;2022-08-11T08:42:17;100800.81;;;28.89;36.80
51178;BME280;37243;49.814;8.652;2022-08-11T08:44:53;100800.81;;;28.89;37.26
51178;BME280;37243;49.814;8.652;2022-08-11T08:47:25;100798.50;;;28.91;37.47
51178;BME280;37243;49.814;8.652;2022-08-11T08:49:59;100798.81;;;28.89;37.09
51178;BME280;37243;49.814;8.652;2022-08-11T08:52:34;100794.94;;;28.90;37.41
51178;BME280;37243;49.814;8.652;2022-08-11T08:55:09;100802.41;;;28.90;37.20
51178;BME280;37243;49.814;8.652;2022-08-11T08:57:41;100801.59;;;28.89;37.09
51178;BME280;37243;49.814;8.652;2022-08-11T09:00:13;100802.41;;;28.90;36.80
51178;BME280;37243;49.814;8.652;2022-08-11T09:02:43;100794.63;;;28.92;37.00
51178;BME280;37243;49.814;8.652;2022-08-11T09:05:12;100793.78;;;28.91;37.43
51178;BME280;37243;49.814;8.652;2022-08-11T09:07:44;100792.31;;;28.94;37.32
51178;BME280;37243;49.814;8.652;2022-08-11T09:10:18;100786.78;;;28.94;36.59
51178;BME280;37243;49.814;8.652;2022-08-11T09:12:47;100791.16;;;28.95;36.95
51178;BME280;37243;49.814;8.652;2022-08-11T09:15:17;100780.09;;;28.95;37.18
51178;BME280;37243;49.814;8.652;2022-08-11T09:17:48;100782.88;;;28.95;36.99
51178;BME280;37243;49.814;8.652;2022-08-11T09:20:19;100789.56;;;28.94;37.00
51178;BME280;37243;49.814;8.652;2022-08-11T09:22:50;100787.59;;;28.94;36.90
51178;BME280;37243;49.814;8.652;2022-08-11T09:25:34;100782.75;;;28.91;37.29
51178;BME280;37243;49.814;8.652;2022-08-11T09:28:17;100781.72;;;28.96;36.93
51178;BME280;37243;49.814;8.652;2022-08-11T09:30:49;100779.31;;;28.94;37.55
51178;BME280;37243;49.814;8.652;2022-08-11T09:33:21;100779.63;;;28.93;36.81
51178;BME280;37243;49.814;8.652;2022-08-11T09:35:51;100783.56;;;28.92;37.22
51178;BME280;37243;49.814;8.652;2022-08-11T09:38:23;100774.13;;;28.93;37.04
51178;BME280;37243;49.814;8.652;2022-08-11T09:41:08;100778.03;;;28.92;37.30
51178;BME280;37243;49.814;8.652;2022-08-11T09:43:39;100782.09;;;28.94;36.76
51178;BME280;37243;49.814;8.652;2022-08-11T09:46:24;100768.59;;;28.93;37.20
51178;BME280;37243;49.814;8.652;2022-08-11T09:49:00;100776.56;;;28.94;37.44
51178;BME280;37243;49.814;8.652;2022-08-11T09:51:31;100775.06;;;28.97;37.56
51178;BME280;37243;49.814;8.652;2022-08-11T09:54:01;100770.69;;;28.96;37.15
51178;BME280;37243;49.814;8.652;2022-08-11T09:56:33;100778.31;;;28.99;36.83
51178;BME280;37243;49.814;8.652;2022-08-11T09:59:16;100770.38;;;28.97;37.65
51178;BME280;37243;49.814;8.652;2022-08-11T10:01:47;100764.84;;;28.97;36.87
51178;BME280;37243;49.814;8.652;2022-08-11T10:04:17;100770.38;;;28.97;37.02
51178;BME280;37243;49.814;8.652;2022-08-11T10:06:49;100758.50;;;28.97;37.66
51178;BME280;37243;49.814;8.652;2022-08-11T10:09:36;100765.63;;;28.98;36.99
51178;BME280;37243;49.814;8.652;2022-08-11T10:12:09;100757.69;;;28.96;37.37
51178;BME280;37243;49.814;8.652;2022-08-11T10:14:43;100757.34;;;28.98;37.38
51178;BME280;37243;49.814;8.652;2022-08-11T10:17:25;100758.50;;;28.97;36.90
51178;BME280;37243;49.814;8.652;2022-08-11T10:19:57;100751.34;;;28.96;37.15
51178;BME280;37243;49.814;8.652;2022-08-11T10:22:28;100757.69;;;28.96;37.28
51178;BME280;37243;49.814;8.652;2022-08-11T10:25:10;100749.03;;;28.98;37.53
51178;BME280;37243;49.814;8.652;2022-08-11T10:27:55;100754.25;;;28.99;37.66
51178;BME280;37243;49.814;8.652;2022-08-11T10:30:25;100746.78;;;29.00;37.16
51178;BME280;37243;49.814;8.652;2022-08-11T10:33:07;100747.59;;;29.00;37.62
51178;BME280;37243;49.814;8.652;2022-08-11T10:35:48;100740.09;;;29.01;37.74
51178;BME280;37243;49.814;8.652;2022-08-11T10:38:17;100729.03;;;29.01;37.34
51178;BME280;37243;49.814;8.652;2022-08-11T10:40:46;100714.44;;;29.00;37.21
51178;BME280;37243;49.814;8.652;2022-08-11T10:43:40;100725.16;;;29.02;37.17
51178;BME280;37243;49.814;8.652;2022-08-11T10:46:08;100716.41;;;29.00;37.07
51178;BME280;37243;49.814;8.652;2022-08-11T10:48:49;100712.47;;;29.01;37.24
51178;BME280;37243;49.814;8.652;2022-08-11T10:51:19;100731.81;;;29.01;36.95
51178;BME280;37243;49.814;8.652;2022-08-11T10:54:00;100724.69;;;29.00;37.41
51178;BME280;37243;49.814;8.652;2022-08-11T10:56:41;100708.09;;;29.00;36.88
51178;BME280;37243;49.814;8.652;2022-08-11T10:59:26;100708.91;;;29.00;36.92
51178;BME280;37243;49.814;8.652;2022-08-11T11:01:55;100708.22;;;29.03;36.84
51178;BME280;37243;49.814;8.652;2022-08-11T11:04:32;100709.38;;;29.02;37.22
51178;BME280;37243;49.814;8.652;2022-08-11T11:07:09;100710.19;;;29.03;37.79
51178;BME280;37243;49.814;8.652;2022-08-11T11:09:46;100706.28;;;29.04;36.79
51178;BME280;37243;49.814;8.652;2022-08-11T11:12:19;100687.75;;;29.04;37.22
51178;BME280;37243;49.814;8.652;2022-08-11T11:15:06;100698.78;;;29.04;36.93
51178;BME280;37243;49.814;8.652;2022-08-11T11:17:51;100686.13;;;29.03;37.42
51178;BME280;37243;49.814;8.652;2022-08-11T11:20:27;100686.63;;;29.05;37.29
51178;BME280;37243;49.814;8.652;2022-08-11T11:23:03;100681.41;;;29.04;36.87
51178;BME280;37243;49.814;8.652;2022-08-11T11:28:57;100685.78;;;29.05;37.07
51178;BME280;37243;49.814;8.652;2022-08-11T11:31:43;100682.69;;;29.06;37.73
51178;BME280;37243;49.814;8.652;2022-08-11T11:34:20;100664.50;;;29.05;37.23
51178;BME280;37243;49.814;8.652;2022-08-11T11:36:53;100669.69;;;29.07;37.43
51178;BME280;37243;49.814;8.652;2022-08-11T11:39:25;100666.09;;;29.06;36.95
51178;BME280;37243;49.814;8.652;2022-08-11T11:41:58;100669.69;;;29.07;37.36
51178;BME280;37243;49.814;8.652;2022-08-11T11:44:31;100663.34;;;29.06;37.27
51178;BME280;37243;49.814;8.652;2022-08-11T11:47:03;100662.56;;;29.06;37.23
51178;BME280;37243;49.814;8.652;2022-08-11T11:49:33;100659.44;;;29.07;37.39
51178;BME280;37243;49.814;8.652;2022-08-11T11:52:06;100653.59;;;29.09;37.11
51178;BME280;37243;49.814;8.652;2022-08-11T11:54:35;100643.69;;;29.08;37.30
51178;BME280;37243;49.814;8.652;2022-08-11T11:57:03;100637.34;;;29.07;37.70
51178;BME280;37243;49.814;8.652;2022-08-11T11:59:44;100640.91;;;29.08;37.55
51178;BME280;37243;49.814;8.652;2022-08-11T12:02:29;100633.44;;;29.08;37.45
51178;BME280;37243;49.814;8.652;2022-08-11T12:04:57;100627.91;;;29.08;37.46
51178;BME280;37243;49.814;8.652;2022-08-11T12:07:26;100623.88;;;29.06;37.34
51178;BME280;37243;49.814;8.652;2022-08-11T12:10:08;100610.53;;;29.08;37.55
51178;BME280;37243;49.814;8.652;2022-08-11T12:12:37;100618.00;;;29.07;37.40
51178;BME280;37243;49.814;8.652;2022-08-11T12:15:18;100625.47;;;29.07;37.59
51178;BME280;37243;49.814;8.652;2022-08-11T12:17:50;100630.19;;;29.06;37.55
51178;BME280;37243;49.814;8.652;2022-08-11T12:20:21;100628.25;;;29.07;37.64
51178;BME280;37243;49.814;8.652;2022-08-11T12:22:50;100619.94;;;29.07;37.79
51178;BME280;37243;49.814;8.652;2022-08-11T12:25:31;100619.94;;;29.07;37.37
51178;BME280;37243;49.814;8.652;2022-08-11T12:28:12;100614.44;;;29.07;37.50
51178;BME280;37243;49.814;8.652;2022-08-11T12:30:42;100608.22;;;29.10;37.73
51178;BME280;37243;49.814;8.652;2022-08-11T12:33:14;100588.44;;;29.08;37.64
51178;BME280;37243;49.814;8.652;2022-08-11T12:35:43;100586.13;;;29.10;37.46
51178;BME280;37243;49.814;8.652;2022-08-11T12:38:12;100595.22;;;29.10;37.52
51178;BME280;37243;49.814;8.652;2022-08-11T12:40:42;100599.94;;;29.10;36.95
51178;BME280;37243;49.814;8.652;2022-08-11T12:43:35;100588.56;;;29.11;37.51
51178;BME280;37243;49.814;8.652;2022-08-11T12:46:21;100586.13;;;29.10;37.12
51178;BME280;37243;49.814;8.652;2022-08-11T12:48:57;100579.78;;;29.09;37.53
51178;BME280;37243;49.814;8.652;2022-08-11T12:51:41;100577.16;;;29.13;37.43
51178;BME280;37243;49.814;8.652;2022-08-11T12:54:28;100570.38;;;29.10;37.50
51178;BME280;37243;49.814;8.652;2022-08-11T12:57:02;100571.50;;;29.09;37.53
51178;BME280;37243;49.814;8.652;2022-08-11T12:59:43;100572.31;;;29.10;37.31
51178;BME280;37243;49.814;8.652;2022-08-11T13:02:25;100571.63;;;29.13;36.92
51178;BME280;37243;49.814;8.652;2022-08-11T13:05:11;100557.34;;;29.11;37.83
51178;BME280;37243;49.814;8.652;2022-08-11T13:07:41;100565.66;;;29.11;37.09
51178;BME280;37243;49.814;8.652;2022-08-11T13:10:12;100564.84;;;29.10;37.57
51178;BME280;37243;49.814;8.652;2022-08-11T13:13:02;100558.50;;;29.10;37.59
51178;BME280;37243;49.814;8.652;2022-08-11T13:15:28;100556.91;;;29.09;37.48
51178;BME280;37243;49.814;8.652;2022-08-11T13:17:58;100552.97;;;29.10;37.02
51178;BME280;37243;49.814;8.652;2022-08-11T13:20:29;100550.69;;;29.12;37.06
51178;BME280;37243;49.814;8.652;2022-08-11T13:22:59;100550.69;;;29.12;37.06
51178;BME280;37243;49.814;8.652;2022-08-11T13:25:30;100549.06;;;29.11;37.09
51178;BME280;37243;49.814;8.652;2022-08-11T13:27:59;100549.53;;;29.13;37.08
51178;BME280;37243;49.814;8.652;2022-08-11T13:30:30;100538.03;;;29.11;36.98
51178;BME280;37243;49.814;8.652;2022-08-11T13:33:12;100547.94;;;29.12;37.83
51178;BME280;37243;49.814;8.652;2022-08-11T13:35:45;100536.06;;;29.11;37.50
51178;BME280;37243;49.814;8.652;2022-08-11T13:38:15;100534.81;;;29.09;37.92
51178;BME280;37243;49.814;8.652;2022-08-11T13:40:44;100543.19;;;29.12;37.66
51178;BME280;37243;49.814;8.652;2022-08-11T13:43:14;100535.25;;;29.11;37.29
51178;BME280;37243;49.814;8.652;2022-08-11T13:45:44;100526.97;;;29.11;37.17
51178;BME280;37243;49.814;8.652;2022-08-11T13:48:14;100525.84;;;29.12;37.27
51178;BME280;37243;49.814;8.652;2022-08-11T13:50:46;100527.09;;;29.14;37.31
51178;BME280;37243;49.814;8.652;2022-08-11T13:53:29;100519.94;;;29.13;37.80
51178;BME280;37243;49.814;8.652;2022-08-11T13:55:58;100516.81;;;29.15;37.77
51178;BME280;37243;49.814;8.652;2022-08-11T13:58:27;100508.09;;;29.13;37.42
51178;BME280;37243;49.814;8.652;2022-08-11T14:00:57;100512.03;;;29.12;37.67
51178;BME280;37243;49.814;8.652;2022-08-11T14:03:26;100516.38;;;29.13;37.17
51178;BME280;37243;49.814;8.652;2022-08-11T14:06:00;100498.66;;;29.14;37.96
51178;BME280;37243;49.814;8.652;2022-08-11T14:08:34;100497.38;;;29.11;37.75
51178;BME280;37243;49.814;8.652;2022-08-11T14:11:06;100497.03;;;29.13;37.96
51178;BME280;37243;49.814;8.652;2022-08-11T14:13:48;100494.28;;;29.13;37.94
51178;BME280;37243;49.814;8.652;2022-08-11T14:16:20;100496.22;;;29.12;37.09
51178;BME280;37243;49.814;8.652;2022-08-11T14:18:56;100491.50;;;29.13;37.96
51178;BME280;37243;49.814;8.652;2022-08-11T14:21:29;100485.16;;;29.12;37.79
51178;BME280;37243;49.814;8.652;2022-08-11T14:24:15;100482.09;;;29.14;37.82
51178;BME280;37243;49.814;8.652;2022-08-11T14:26:46;100485.97;;;29.13;37.58
51178;BME280;37243;49.814;8.652;2022-08-11T14:29:16;100482.91;;;29.14;37.90
51178;BME280;37243;49.814;8.652;2022-08-11T14:31:47;100478.50;;;29.13;37.64